メインページ
METAR-TAF:

METAR-TAF

空港 :

Community_Airport

Owosso, ミシガン州, アメリカ合衆国

緯度: 42-59-34N, 経度: 084-08-20W, 海抜: 224m

現時点の気象観測

当レポートは21分前の00:06(UTC)に作成
の風 5kt
気温 21°C
湿度 53%
気圧 1025 hPa
視程: 16.1km
晴天

METAR: KRNP 250006Z AUTO 08005KT 10SM CLR 21/11 A3026 RMK AO2

時間: 20:27 (00:27 UTC)


TAF: 見つかりません

4,000以上の空港の気象観測と天気予報(METAR報とTAF報)

利用可能な観測所は地図上に黄色い丸と赤い丸で示す。

丸の上にカーソルを重ねると観測所名を参照できる。

次にクリックすると気象観測と天気予報を参照できる。

マップの切り替え:黒色「×」印の緑ボタンをクリックして拡大、「-」印の緑ボタンをクリックして縮小、緑色の三角印をクリックして隣りの地図に切り替え


METAR-TAF: